Time;durP1;ratioP1;P1;durP2;ratioP2;P2;SDS_P1;SDS_P2;PMS_P1;PMS_P2;Temp;Humidity;BMP_temperature;BMP_pressure;BME280_temperature;BME280_humidity;BME280_pressure;Samples;Min_cycle;Max_cycle;Signal;HPM_P1;HPM_P2
2021/07/13 00:00:49;;;;;;;1.60;1.10;;;;;;;14.75;100.00;92425.28;2089210;28;20013;-89
2021/07/13 00:01:49;;;;;;;1.40;1.15;;;;;;;14.72;100.00;92423.50;2098484;28;20071;-89
2021/07/13 00:02:51;;;;;;;1.30;1.20;;;;;;;14.81;100.00;92430.75;2106177;28;20039;-90
2021/07/13 00:03:53;;;;;;;2.92;1.13;;;;;;;14.79;100.00;92427.75;2102046;28;20366;-90
2021/07/13 00:04:54;;;;;;;1.48;1.38;;;;;;;14.80;100.00;92440.03;2098101;28;20431;-89
2021/07/13 00:05:55;;;;;;;1.50;1.15;;;;;;;14.75;100.00;92446.03;2084345;28;20049;-89
2021/07/13 00:06:55;;;;;;;3.17;1.13;;;;;;;14.77;100.00;92446.31;2093920;28;20020;-89
2021/07/13 00:07:56;;;;;;;3.17;1.35;;;;;;;14.80;100.00;92442.72;2087236;28;20402;-89
2021/07/13 00:08:58;;;;;;;4.18;1.30;;;;;;;14.84;100.00;92449.44;2090250;28;20021;-89
2021/07/13 00:09:58;;;;;;;1.10;1.00;;;;;;;14.83;100.00;92449.88;2086530;28;20025;-89
2021/07/13 00:10:59;;;;;;;1.63;1.20;;;;;;;14.85;100.00;92455.53;2084192;28;20021;-89
2021/07/13 00:12:00;;;;;;;1.63;1.08;;;;;;;14.76;100.00;92455.59;2107182;28;20106;-89
2021/07/13 00:13:01;;;;;;;1.83;1.17;;;;;;;14.79;100.00;92455.44;2093310;28;20021;-90
2021/07/13 00:14:03;;;;;;;2.47;1.23;;;;;;;14.76;100.00;92450.97;2107668;28;20404;-91
2021/07/13 00:15:24;;;;;;;3.72;1.40;;;;;;;14.82;100.00;92446.44;2095439;28;20047;-90
2021/07/13 00:16:25;;;;;;;1.42;1.00;;;;;;;14.78;100.00;92443.16;2093480;28;20028;-91
2021/07/13 00:17:25;;;;;;;18.52;1.65;;;;;;;14.82;100.00;92441.06;2090618;28;20048;-91
2021/07/13 00:18:26;;;;;;;4.78;1.38;;;;;;;14.78;100.00;92434.34;2098969;28;20519;-91
2021/07/13 00:19:27;;;;;;;2.33;1.52;;;;;;;14.83;100.00;92434.47;2090702;28;20016;-91
2021/07/13 00:20:27;;;;;;;6.22;1.55;;;;;;;14.83;100.00;92431.03;2082047;28;20029;-92
2021/07/13 00:21:28;;;;;;;1.92;1.30;;;;;;;14.78;100.00;92421.66;2090663;28;20017;-91
2021/07/13 00:22:29;;;;;;;6.13;1.40;;;;;;;14.79;100.00;92411.63;2089007;28;20059;-89
2021/07/13 00:23:30;;;;;;;3.17;1.17;;;;;;;14.76;100.00;92417.94;2098709;28;20028;-90
2021/07/13 00:24:31;;;;;;;2.35;1.40;;;;;;;14.68;100.00;92420.22;2098988;28;20028;-90
2021/07/13 00:25:32;;;;;;;4.10;1.27;;;;;;;14.76;100.00;92423.31;2090543;28;20021;-89
2021/07/13 00:26:34;;;;;;;4.90;1.30;;;;;;;14.70;100.00;92433.22;2090533;28;20054;-90
2021/07/13 00:27:35;;;;;;;2.03;1.20;;;;;;;14.69;100.00;92443.22;2082694;28;20116;-91
2021/07/13 00:28:36;;;;;;;5.60;1.60;;;;;;;14.64;100.00;92445.81;2082204;28;20021;-89
2021/07/13 00:29:36;;;;;;;3.75;1.20;;;;;;;14.67;100.00;92463.75;2082271;28;20026;-91
2021/07/13 00:30:37;;;;;;;6.03;1.40;;;;;;;14.70;100.00;92468.19;2083086;28;20033;-91
2021/07/13 00:31:38;;;;;;;4.35;1.48;;;;;;;14.72;100.00;92481.94;2083872;28;20112;-90
2021/07/13 00:32:39;;;;;;;3.15;1.45;;;;;;;14.70;100.00;92490.44;2092309;28;20068;-90
2021/07/13 00:33:39;;;;;;;2.80;1.50;;;;;;;14.74;100.00;92484.91;2090340;28;20021;-90
2021/07/13 00:34:40;;;;;;;2.50;1.50;;;;;;;14.68;100.00;92498.25;2093731;28;20523;-90
2021/07/13 00:35:41;;;;;;;4.35;1.77;;;;;;;14.65;100.00;92499.16;2088066;28;20086;-90
2021/07/13 00:36:41;;;;;;;5.20;1.55;;;;;;;14.69;100.00;92504.38;2083297;28;20516;-89
2021/07/13 00:37:43;;;;;;;2.60;1.55;;;;;;;14.67;100.00;92487.94;2094496;28;20035;-90
2021/07/13 00:38:43;;;;;;;2.17;1.27;;;;;;;14.68;100.00;92490.16;2090018;28;20017;-90
2021/07/13 00:39:44;;;;;;;2.50;1.50;;;;;;;14.73;100.00;92484.16;2090244;28;20120;-89
2021/07/13 00:40:45;;;;;;;2.25;1.60;;;;;;;14.79;100.00;92478.88;2089417;28;20053;-92
2021/07/13 00:41:46;;;;;;;3.55;1.80;;;;;;;14.77;100.00;92476.66;2083903;28;20144;-89
2021/07/13 00:42:49;;;;;;;7.63;1.75;;;;;;;14.74;100.00;92477.56;2094690;28;20016;-92
2021/07/13 00:43:49;;;;;;;6.43;2.78;;;;;;;14.76;100.00;92480.56;2098636;28;20991;-89
2021/07/13 00:44:50;;;;;;;3.70;1.63;;;;;;;14.68;100.00;92482.09;2083385;28;20025;-88
2021/07/13 00:45:51;;;;;;;6.60;1.90;;;;;;;14.68;100.00;92481.34;2089411;28;20408;-90
2021/07/13 00:46:54;;;;;;;3.60;1.73;;;;;;;14.61;100.00;92488.53;2098239;28;20023;-90
2021/07/13 00:47:55;;;;;;;2.72;1.67;;;;;;;14.66;100.00;92489.88;2082320;28;20116;-90
2021/07/13 00:48:57;;;;;;;3.38;1.70;;;;;;;14.69;100.00;92491.66;2081409;28;20021;-89
2021/07/13 00:50:00;;;;;;;2.15;1.90;;;;;;;14.68;100.00;92492.13;2090776;28;20032;-89
2021/07/13 00:51:03;;;;;;;1.50;1.40;;;;;;;14.73;100.00;92494.19;2092543;28;20104;-90
2021/07/13 00:52:07;;;;;;;1.98;1.50;;;;;;;14.68;100.00;92492.13;2090475;28;20606;-90
2021/07/13 00:53:08;;;;;;;2.22;1.70;;;;;;;14.66;100.00;92492.56;2085933;28;20117;-88
2021/07/13 00:54:09;;;;;;;2.08;1.63;;;;;;;14.72;100.00;92490.00;2098453;28;20021;-90
2021/07/13 00:55:12;;;;;;;4.88;1.73;;;;;;;14.74;100.00;92490.28;2090124;28;20021;-90
2021/07/13 00:56:13;;;;;;;1.80;1.48;;;;;;;14.68;100.00;92489.44;2090629;28;20383;-90
2021/07/13 00:57:16;;;;;;;5.07;1.65;;;;;;;14.66;100.00;92489.88;2094141;28;20028;-89
2021/07/13 00:58:17;;;;;;;2.22;1.60;;;;;;;14.61;100.00;92485.84;2090915;28;20049;-90
2021/07/13 00:59:18;;;;;;;4.07;1.77;;;;;;;14.67;100.00;92486.00;2089088;28;20024;-88
2021/07/13 01:00:21;;;;;;;2.72;1.60;;;;;;;14.66;100.00;92478.38;2089776;28;20055;-90
2021/07/13 01:01:23;;;;;;;1.60;1.30;;;;;;;14.64;100.00;92470.75;2090155;28;20501;-90
2021/07/13 01:02:24;;;;;;;3.15;1.60;;;;;;;14.72;100.00;92471.19;2085427;28;20039;-89
2021/07/13 01:03:25;;;;;;;2.47;1.60;;;;;;;14.70;100.00;92458.16;2106896;28;20028;-89
2021/07/13 01:04:26;;;;;;;4.03;1.77;;;;;;;14.67;100.00;92453.72;2094560;28;20362;-89
2021/07/13 01:05:31;;;;;;;3.13;2.00;;;;;;;14.69;100.00;92453.25;2081725;28;20035;-89
2021/07/13 01:06:58;;;;;;;6.18;2.30;;;;;;;14.72;100.00;92463.09;2097652;28;20024;-88
2021/07/13 01:08:05;;;;;;;2.35;1.50;;;;;;;14.71;100.00;92458.94;2111648;28;20031;-91
2021/07/13 01:09:11;;;;;;;2.67;1.77;;;;;;;14.74;100.00;92474.88;2098223;28;20040;-89
2021/07/13 01:10:28;;;;;;;3.00;1.60;;;;;;;14.71;100.00;92478.50;2090339;28;20401;-89
2021/07/13 01:11:47;;;;;;;4.50;1.20;;;;;;;14.69;100.00;92474.78;2096215;28;20120;-90
2021/07/13 01:13:03;;;;;;;2.45;1.20;;;;;;;14.74;100.00;92482.22;2098336;28;20078;-90
2021/07/13 01:14:10;;;;;;;2.90;1.17;;;;;;;14.75;100.00;92487.16;2090583;28;20035;-90
2021/07/13 01:15:14;;;;;;;3.47;1.20;;;;;;;14.79;100.00;92486.97;2089540;28;20017;-90
2021/07/13 01:16:50;;;;;;;1.13;0.88;;;;;;;14.67;100.00;92491.38;2078326;28;20477;-91
2021/07/13 01:18:12;;;;;;;2.47;1.25;;;;;;;14.68;100.00;92492.84;2090409;28;20037;-90
2021/07/13 01:19:33;;;;;;;2.03;1.20;;;;;;;14.68;100.00;92500.94;2090582;28;20433;-91
2021/07/13 01:21:35;;;;;;;1.50;0.93;;;;;;;14.69;100.00;92501.66;2086919;28;20104;-89
2021/07/13 01:22:43;;;;;;;1.92;0.90;;;;;;;14.64;100.00;92494.97;2062379;28;20782;-92
2021/07/13 01:23:54;;;;;;;1.65;0.95;;;;;;;14.70;100.00;92495.09;2071077;28;20034;-90
2021/07/13 01:25:07;;;;;;;1.67;1.02;;;;;;;14.70;100.00;92500.47;2085051;28;20040;-89
2021/07/13 01:26:35;;;;;;;1.17;0.77;;;;;;;14.70;100.00;92503.91;2092935;28;20029;-89
2021/07/13 01:27:56;;;;;;;1.48;0.98;;;;;;;14.71;100.00;92507.34;2085709;28;20059;-90
2021/07/13 01:29:02;;;;;;;1.05;0.80;;;;;;;14.69;100.00;92515.13;2084593;28;20725;-91
2021/07/13 01:30:09;;;;;;;3.00;1.00;;;;;;;14.72;100.00;92504.19;2090622;28;20021;-88
2021/07/13 01:31:16;;;;;;;1.65;0.90;;;;;;;14.74;100.00;92509.09;2081639;28;20112;-90
2021/07/13 01:32:22;;;;;;;1.20;0.98;;;;;;;14.76;100.00;92495.97;2075315;28;20022;-88
2021/07/13 01:33:26;;;;;;;1.77;0.75;;;;;;;14.76;100.00;92495.97;2088279;28;20071;-90
2021/07/13 01:34:39;;;;;;;1.20;0.70;;;;;;;14.65;100.00;92490.34;2079917;28;20045;-89
2021/07/13 01:35:50;;;;;;;2.05;0.80;;;;;;;14.67;100.00;92490.63;2072609;28;20034;-89
2021/07/13 01:36:54;;;;;;;1.38;0.65;;;;;;;14.65;100.00;92482.25;2070471;28;20017;-90
2021/07/13 01:37:59;;;;;;;2.38;0.65;;;;;;;14.63;100.00;92482.00;2074099;28;20029;-92
2021/07/13 01:39:01;;;;;;;1.40;0.80;;;;;;;14.68;100.00;92476.72;2070001;28;20026;-89
2021/07/13 01:40:06;;;;;;;0.85;0.63;;;;;;;14.71;100.00;92475.06;2074153;28;20024;-90
2021/07/13 01:41:10;;;;;;;0.82;0.70;;;;;;;14.64;100.00;92475.41;2082220;28;20069;-90
2021/07/13 01:42:12;;;;;;;0.90;0.70;;;;;;;14.56;100.00;92475.72;2084963;28;20025;-90
2021/07/13 01:43:14;;;;;;;1.30;0.68;;;;;;;14.58;100.00;92473.34;2076241;28;20019;-89
2021/07/13 01:44:17;;;;;;;1.50;0.80;;;;;;;14.56;100.00;92462.28;2067777;28;20583;-91
2021/07/13 01:45:18;;;;;;;1.45;0.75;;;;;;;14.55;100.00;92473.50;2073911;28;20037;-89
2021/07/13 01:46:21;;;;;;;2.13;0.90;;;;;;;14.50;100.00;92466.81;2081551;28;20037;-91
2021/07/13 01:47:23;;;;;;;1.67;0.70;;;;;;;14.49;100.00;92468.00;2066922;28;20077;-90
2021/07/13 01:48:27;;;;;;;1.38;0.80;;;;;;;14.43;100.00;92477.13;2068433;28;20049;-90
2021/07/13 01:49:28;;;;;;;2.58;1.15;;;;;;;14.36;100.00;92467.44;2072869;28;20029;-90
2021/07/13 01:50:31;;;;;;;1.95;0.90;;;;;;;14.38;100.00;92465.03;2069274;28;20120;-91
2021/07/13 01:51:33;;;;;;;2.58;0.93;;;;;;;14.39;100.00;92455.75;2081956;28;20025;-89
2021/07/13 01:52:35;;;;;;;1.42;1.10;;;;;;;14.39;100.00;92463.84;2094311;28;20016;-92
2021/07/13 01:53:37;;;;;;;2.85;0.90;;;;;;;14.28;100.00;92460.91;2090075;28;21135;-89
2021/07/13 01:54:40;;;;;;;1.17;1.08;;;;;;;14.33;100.00;92460.28;2073502;28;20458;-89
2021/07/13 01:55:42;;;;;;;2.60;1.08;;;;;;;14.33;100.00;92454.91;2068815;28;20049;-89
2021/07/13 01:56:50;;;;;;;4.63;1.00;;;;;;;14.33;100.00;92449.53;2076360;28;20144;-88
2021/07/13 01:57:53;;;;;;;1.58;1.10;;;;;;;14.32;100.00;92440.72;2080274;28;20025;-89
2021/07/13 01:58:54;;;;;;;3.13;1.05;;;;;;;14.36;100.00;92440.56;2070736;28;20045;-90
2021/07/13 01:59:57;;;;;;;2.83;1.20;;;;;;;14.32;100.00;92427.28;2087728;28;20386;-89
2021/07/13 02:01:05;;;;;;;4.05;1.17;;;;;;;14.29;100.00;92428.19;2103539;28;20028;-89
2021/07/13 02:02:09;;;;;;;6.40;1.10;;;;;;;14.29;100.00;92430.13;2092316;28;20021;-89
2021/07/13 02:03:10;;;;;;;2.78;1.10;;;;;;;14.33;100.00;92425.34;2085405;28;20017;-90
2021/07/13 02:06:17;;;;;;;;;;;;;;;14.33;100.00;92430.72;2142114;27;20117;-87
2021/07/13 02:07:18;;;;;;;1.60;1.00;;;;;;;14.39;100.00;92433.50;2123522;27;19912;-90
2021/07/13 02:08:20;;;;;;;4.00;1.30;;;;;;;14.38;100.00;92440.09;2110391;28;20035;-89
2021/07/13 02:09:21;;;;;;;2.35;1.20;;;;;;;14.35;100.00;92431.75;2112283;27;20024;-87
2021/07/13 02:10:22;;;;;;;1.67;1.23;;;;;;;14.36;100.00;92435.19;2113887;28;20019;-91
2021/07/13 02:11:26;;;;;;;3.95;1.48;;;;;;;14.31;100.00;92433.09;2118480;27;20482;-90
2021/07/13 02:12:26;;;;;;;2.40;1.20;;;;;;;14.32;100.00;92434.59;2125292;27;20480;-87
2021/07/13 02:13:28;;;;;;;2.95;1.42;;;;;;;14.29;100.00;92430.13;2123997;27;20015;-90
2021/07/13 02:14:29;;;;;;;3.05;1.20;;;;;;;14.32;100.00;92426.53;2113851;28;20055;-89
2021/07/13 02:15:30;;;;;;;2.00;1.55;;;;;;;14.38;100.00;92423.97;2106316;28;20021;-89
2021/07/13 02:16:31;;;;;;;2.20;1.30;;;;;;;14.34;100.00;92424.13;2113432;28;20016;-87
2021/07/13 02:17:32;;;;;;;2.67;1.50;;;;;;;14.38;100.00;92421.28;2113392;28;20012;-89
2021/07/13 02:18:33;;;;;;;2.47;1.27;;;;;;;14.32;100.00;92415.78;2122888;27;20031;-87
2021/07/13 02:19:33;;;;;;;3.28;1.70;;;;;;;14.39;100.00;92402.00;2112095;28;20024;-89
2021/07/13 02:20:34;;;;;;;5.07;1.65;;;;;;;14.35;100.00;92409.47;2107252;28;20072;-87
2021/07/13 02:21:36;;;;;;;2.78;1.50;;;;;;;14.34;100.00;92410.69;2115119;28;20047;-88
2021/07/13 02:22:38;;;;;;;4.15;1.45;;;;;;;14.35;100.00;92412.94;2107019;28;20066;-88
2021/07/13 02:23:38;;;;;;;1.60;1.50;;;;;;;14.37;100.00;92409.78;2111292;28;20031;-89
2021/07/13 02:24:39;;;;;;;2.42;1.40;;;;;;;14.34;100.00;92418.75;2103844;28;20470;-88
2021/07/13 02:25:43;;;;;;;3.30;1.42;;;;;;;14.33;100.00;92415.31;2105665;28;20032;-90
2021/07/13 02:26:49;;;;;;;1.70;1.40;;;;;;;14.31;100.00;92415.06;2104412;28;20016;-89
2021/07/13 02:28:10;;;;;;;4.00;1.40;;;;;;;14.36;100.00;92414.41;2095138;28;20032;-91
2021/07/13 02:29:25;;;;;;;6.30;1.67;;;;;;;14.33;100.00;92412.63;2104274;28;20067;-90
2021/07/13 02:30:28;;;;;;;2.63;1.30;;;;;;;14.34;100.00;92413.38;2109649;28;20020;-90
2021/07/13 02:31:41;;;;;;;2.63;1.80;;;;;;;14.38;100.00;92419.34;2103682;28;20055;-89
2021/07/13 02:32:58;;;;;;;2.63;1.63;;;;;;;14.39;100.00;92420.81;2104969;28;20121;-88
2021/07/13 02:34:15;;;;;;;5.50;1.88;;;;;;;14.39;100.00;92423.50;2101280;28;20024;-89
2021/07/13 02:35:19;;;;;;;2.30;1.70;;;;;;;14.36;100.00;92416.38;2110213;28;20020;-90
2021/07/13 02:36:28;;;;;;;3.00;1.85;;;;;;;14.38;100.00;92421.28;2106155;28;20022;-88
2021/07/13 02:37:31;;;;;;;1.52;1.42;;;;;;;14.38;100.00;92419.34;2116141;28;20023;-88
2021/07/13 02:38:32;;;;;;;1.88;1.63;;;;;;;14.36;100.00;92419.06;2112578;28;20073;-88
2021/07/13 02:39:38;;;;;;;1.65;1.55;;;;;;;14.32;100.00;92415.78;2095741;28;20166;-88
2021/07/13 02:40:40;;;;;;;3.22;1.98;;;;;;;14.40;100.00;92419.63;2113547;28;20085;-88
2021/07/13 02:41:43;;;;;;;3.00;1.73;;;;;;;14.34;100.00;92416.81;2104658;28;20081;-89
2021/07/13 02:42:46;;;;;;;4.13;2.28;;;;;;;14.34;100.00;92416.81;2101636;28;20032;-89
2021/07/13 02:43:47;;;;;;;3.67;1.60;;;;;;;14.35;100.00;92401.41;2099980;28;20062;-88
2021/07/13 02:44:49;;;;;;;2.97;1.90;;;;;;;14.36;100.00;92392.16;2096242;28;20024;-90
2021/07/13 02:45:53;;;;;;;3.75;1.70;;;;;;;14.32;100.00;92388.91;2095985;28;20033;-90
2021/07/13 02:46:55;;;;;;;3.50;1.65;;;;;;;14.33;100.00;92377.69;2104949;28;20099;-87
2021/07/13 02:47:57;;;;;;;5.13;2.08;;;;;;;14.30;100.00;92372.47;2104545;28;20560;-88
2021/07/13 02:49:00;;;;;;;2.28;1.50;;;;;;;14.28;100.00;92369.50;2121047;28;20019;-91
2021/07/13 02:50:01;;;;;;;2.80;1.52;;;;;;;14.30;100.00;92367.84;2112873;28;20492;-89
2021/07/13 02:51:02;;;;;;;6.95;1.90;;;;;;;14.34;100.00;92370.34;2111979;28;20392;-87
2021/07/13 02:52:05;;;;;;;2.72;1.83;;;;;;;14.31;100.00;92361.28;2100572;28;20381;-89
2021/07/13 02:53:10;;;;;;;1.85;1.55;;;;;;;14.32;100.00;92367.41;2101652;28;20481;-87
2021/07/13 02:54:12;;;;;;;2.75;1.98;;;;;;;14.37;100.00;92366.75;2105319;28;20587;-88
2021/07/13 02:55:21;;;;;;;1.80;1.70;;;;;;;14.37;100.00;92366.75;2104170;28;20031;-88
2021/07/13 02:56:25;;;;;;;3.17;1.70;;;;;;;14.42;100.00;92362.69;2108942;28;20069;-89
2021/07/13 02:57:27;;;;;;;4.15;1.75;;;;;;;14.41;100.00;92367.34;2112635;28;20031;-88
2021/07/13 02:58:28;;;;;;;1.60;1.50;;;;;;;14.37;100.00;92369.44;2095857;28;20486;-87
2021/07/13 02:59:32;;;;;;;3.58;2.10;;;;;;;14.38;100.00;92365.56;2104236;28;20025;-88
2021/07/13 03:00:34;;;;;;;2.42;1.75;;;;;;;14.31;100.00;92373.94;2104882;28;20024;-87
2021/07/13 03:01:36;;;;;;;3.40;1.90;;;;;;;14.27;100.00;92381.47;2104287;28;20119;-88
2021/07/13 03:02:39;;;;;;;5.13;1.77;;;;;;;14.28;100.00;92378.31;2104722;28;20162;-89
2021/07/13 03:03:42;;;;;;;2.40;1.67;;;;;;;14.32;100.00;92380.84;2121331;27;20109;-88
2021/07/13 03:04:42;;;;;;;2.90;1.60;;;;;;;14.37;100.00;92382.91;2112485;28;20032;-90
2021/07/13 03:05:44;;;;;;;1.67;1.50;;;;;;;14.35;100.00;92386.06;2103917;28;20513;-87
2021/07/13 03:06:46;;;;;;;2.17;1.73;;;;;;;14.40;100.00;92382.00;2112557;28;20801;-89
2021/07/13 03:07:48;;;;;;;2.33;1.55;;;;;;;14.41;100.00;92382.72;2112576;28;20075;-89
2021/07/13 03:08:49;;;;;;;2.55;1.63;;;;;;;14.39;100.00;92383.16;2104360;28;20115;-88
2021/07/13 03:09:50;;;;;;;2.05;1.60;;;;;;;14.39;100.00;92380.47;2099584;28;20090;-89
2021/07/13 03:10:55;;;;;;;2.88;1.95;;;;;;;14.40;100.00;92384.69;2103599;28;20494;-89
2021/07/13 03:11:56;;;;;;;2.10;1.65;;;;;;;14.29;100.00;92381.75;2099632;28;20563;-89
2021/07/13 03:12:57;;;;;;;1.85;1.65;;;;;;;14.32;100.00;92381.59;2112078;28;20024;-88
2021/07/13 03:14:01;;;;;;;1.33;1.23;;;;;;;14.35;100.00;92380.69;2095810;28;20017;-89
2021/07/13 03:15:04;;;;;;;3.10;1.77;;;;;;;14.39;100.00;92385.13;2095107;28;20044;-91
2021/07/13 03:16:05;;;;;;;2.30;1.20;;;;;;;14.39;100.00;92391.22;2101278;28;20477;-89
2021/07/13 03:17:07;;;;;;;3.58;1.77;;;;;;;14.39;100.00;92393.91;2106943;28;20031;-88
2021/07/13 03:18:08;;;;;;;1.73;1.52;;;;;;;14.41;100.00;92393.47;2098831;28;20024;-87
2021/07/13 03:19:11;;;;;;;2.72;1.25;;;;;;;14.43;100.00;92396.44;2098603;28;20492;-87
2021/07/13 03:20:12;;;;;;;2.55;1.80;;;;;;;14.43;100.00;92396.44;2106981;28;20020;-88
2021/07/13 03:21:15;;;;;;;2.97;1.58;;;;;;;14.38;100.00;92397.06;2098525;28;20024;-87
2021/07/13 03:22:30;;;;;;;4.32;1.70;;;;;;;14.41;100.00;92393.47;2105289;28;20065;-87
2021/07/13 03:23:37;;;;;;;3.63;1.58;;;;;;;14.43;100.00;92391.81;2101947;28;20561;-86
2021/07/13 03:24:40;;;;;;;1.70;1.60;;;;;;;14.45;100.00;92388.69;2091820;28;20094;-89
2021/07/13 03:25:41;;;;;;;1.60;1.40;;;;;;;14.42;100.00;92378.84;2100681;28;20031;-91
2021/07/13 03:26:44;;;;;;;3.35;1.38;;;;;;;14.35;100.00;92383.38;2110537;28;20047;-89
2021/07/13 03:27:48;;;;;;;6.05;1.50;;;;;;;14.37;100.00;92377.50;2092494;28;20100;-87
2021/07/13 03:28:49;;;;;;;3.00;1.40;;;;;;;14.40;100.00;92376.63;2098759;28;20031;-89
2021/07/13 03:29:53;;;;;;;3.60;1.63;;;;;;;14.37;100.00;92372.13;2090131;28;20029;-90
2021/07/13 03:30:55;;;;;;;2.67;1.55;;;;;;;14.40;100.00;92367.78;2094189;28;20029;-88
2021/07/13 03:31:57;;;;;;;3.47;1.60;;;;;;;14.41;100.00;92366.59;2103412;28;20024;-87
2021/07/13 03:32:58;;;;;;;4.18;1.58;;;;;;;14.41;100.00;92370.03;2105662;28;20044;-89
2021/07/13 03:34:02;;;;;;;2.78;1.70;;;;;;;14.43;100.00;92367.59;2097540;28;20028;-90
2021/07/13 03:35:04;;;;;;;2.05;1.92;;;;;;;14.46;100.00;92358.63;2098821;28;20099;-88
2021/07/13 03:36:05;;;;;;;7.82;1.75;;;;;;;14.44;100.00;92365.66;2106845;28;20024;-88
2021/07/13 03:37:06;;;;;;;3.30;1.80;;;;;;;14.44;100.00;92354.91;2106684;28;20027;-88
2021/07/13 03:38:07;;;;;;;2.90;1.90;;;;;;;14.45;100.00;92357.16;2096376;28;20036;-89
2021/07/13 03:39:08;;;;;;;2.75;1.50;;;;;;;14.39;100.00;92342.84;2098586;28;20024;-89
2021/07/13 03:40:10;;;;;;;4.60;1.63;;;;;;;14.41;100.00;92351.22;2098159;28;20070;-90
2021/07/13 03:41:12;;;;;;;1.83;1.70;;;;;;;14.39;100.00;92342.09;2090236;28;20017;-89
2021/07/13 03:42:13;;;;;;;2.50;1.60;;;;;;;14.44;100.00;92334.13;2098799;28;20028;-87
2021/07/13 03:43:15;;;;;;;3.30;1.70;;;;;;;14.42;100.00;92328.50;2097123;28;20074;-88
2021/07/13 03:44:15;;;;;;;3.08;1.70;;;;;;;14.44;100.00;92333.41;2090314;28;20044;-86
2021/07/13 03:45:17;;;;;;;1.80;1.70;;;;;;;14.47;100.00;92319.03;2089919;28;20031;-87
2021/07/13 03:46:18;;;;;;;2.45;1.92;;;;;;;14.44;100.00;92323.38;2089269;28;20131;-87
2021/07/13 03:47:19;;;;;;;2.25;1.40;;;;;;;14.45;100.00;92321.47;2090023;28;20032;-88
2021/07/13 03:48:22;;;;;;;3.05;1.60;;;;;;;14.45;100.00;92321.47;2090251;28;20017;-88
2021/07/13 03:49:25;;;;;;;1.88;1.70;;;;;;;14.43;100.00;92327.28;2096083;28;20024;-89
2021/07/13 03:50:29;;;;;;;2.55;1.65;;;;;;;14.40;100.00;92327.44;2106893;28;20023;-86
2021/07/13 03:51:42;;;;;;;1.80;1.35;;;;;;;14.36;100.00;92325.69;2113108;28;20757;-90
2021/07/13 03:52:43;;;;;;;2.55;1.60;;;;;;;14.42;100.00;92330.44;2109736;27;20824;-89
2021/07/13 03:53:44;;;;;;;1.92;1.35;;;;;;;14.39;100.00;92317.91;2109530;28;20546;-86
2021/07/13 03:54:45;;;;;;;1.83;1.73;;;;;;;14.37;100.00;92329.13;2094329;28;20024;-89
2021/07/13 03:55:46;;;;;;;2.33;1.52;;;;;;;14.41;100.00;92328.94;2089912;28;20515;-89
2021/07/13 03:56:49;;;;;;;2.35;1.65;;;;;;;14.40;100.00;92327.44;2096816;28;20035;-91
2021/07/13 03:57:52;;;;;;;2.00;1.77;;;;;;;14.43;100.00;92335.34;2090546;28;20029;-88
2021/07/13 03:58:55;;;;;;;2.08;1.52;;;;;;;14.42;100.00;92331.19;2098393;28;20052;-88
2021/07/13 03:59:55;;;;;;;2.28;1.85;;;;;;;14.39;100.00;92331.34;2098166;28;20448;-88
2021/07/13 04:00:56;;;;;;;2.05;1.75;;;;;;;14.43;100.00;92340.72;2101937;28;20034;-88
2021/07/13 04:01:57;;;;;;;6.75;2.22;;;;;;;14.41;100.00;92332.38;2105201;28;20069;-89
2021/07/13 04:02:58;;;;;;;2.90;1.45;;;;;;;14.45;100.00;92324.88;2098249;28;20028;-89
2021/07/13 04:04:00;;;;;;;1.85;1.40;;;;;;;14.41;100.00;92335.06;2090992;28;20087;-90
2021/07/13 04:05:01;;;;;;;3.28;1.52;;;;;;;14.43;100.00;92331.91;2100913;28;20027;-87
2021/07/13 04:06:01;;;;;;;2.38;1.60;;;;;;;14.45;100.00;92326.84;2114102;28;20036;-88
2021/07/13 04:07:04;;;;;;;3.53;1.55;;;;;;;14.45;100.00;92324.88;2106283;28;20039;-89
2021/07/13 04:08:05;;;;;;;3.08;1.70;;;;;;;14.49;100.00;92319.38;2106462;28;20019;-88
2021/07/13 04:09:07;;;;;;;2.28;1.88;;;;;;;14.47;100.00;92319.03;2098107;28;20385;-90
2021/07/13 04:10:10;;;;;;;3.92;2.17;;;;;;;14.46;100.00;92326.38;2106648;28;20063;-90
2021/07/13 04:11:11;;;;;;;3.83;2.47;;;;;;;14.48;100.00;92318.59;2106264;28;20111;-89
2021/07/13 04:12:11;;;;;;;7.68;3.10;;;;;;;14.51;100.00;92322.31;2099298;28;20559;-90
2021/07/13 04:13:13;;;;;;;2.88;1.92;;;;;;;14.50;100.00;92324.28;2098567;28;20028;-89
2021/07/13 04:14:14;;;;;;;1.92;1.75;;;;;;;14.45;100.00;92322.19;2098432;28;20799;-89
2021/07/13 04:15:14;;;;;;;2.70;1.90;;;;;;;14.48;100.00;92332.03;2098883;28;20024;-89
2021/07/13 04:16:15;;;;;;;1.90;1.60;;;;;;;14.48;100.00;92331.28;2101301;28;20021;-90
2021/07/13 04:17:16;;;;;;;3.78;1.88;;;;;;;14.47;100.00;92332.47;2097294;28;20112;-90
2021/07/13 04:18:16;;;;;;;3.00;2.17;;;;;;;14.46;100.00;92339.81;2099115;28;20035;-90
2021/07/13 04:19:17;;;;;;;2.08;1.63;;;;;;;14.49;100.00;92351.63;2098080;28;20039;-89
2021/07/13 04:20:18;;;;;;;2.00;1.80;;;;;;;14.48;100.00;92350.09;2105890;28;20024;-89
2021/07/13 04:21:19;;;;;;;2.78;1.92;;;;;;;14.51;100.00;92354.59;2098079;28;20024;-87
2021/07/13 04:22:19;;;;;;;2.03;1.83;;;;;;;14.54;100.00;92359.06;2103917;28;20481;-89
2021/07/13 04:23:20;;;;;;;1.60;1.50;;;;;;;14.50;100.00;92363.88;2102620;28;20020;-87
2021/07/13 04:24:21;;;;;;;2.25;1.65;;;;;;;14.51;100.00;92358.03;2089783;28;20094;-89
2021/07/13 04:25:22;;;;;;;2.17;1.58;;;;;;;14.48;100.00;92369.69;2098696;28;20127;-87
2021/07/13 04:26:23;;;;;;;2.55;1.90;;;;;;;14.49;100.00;92373.16;2114695;28;20028;-91
2021/07/13 04:27:24;;;;;;;1.85;1.50;;;;;;;14.49;100.00;92375.84;2106237;28;20024;-91
2021/07/13 04:28:26;;;;;;;2.63;1.42;;;;;;;14.49;100.00;92370.47;2097743;28;20037;-88
2021/07/13 04:29:27;;;;;;;2.17;1.63;;;;;;;14.49;100.00;92373.16;2094649;28;20445;-90
2021/07/13 04:30:28;;;;;;;4.03;1.60;;;;;;;14.49;100.00;92370.47;2100994;28;20031;-88
2021/07/13 04:31:30;;;;;;;1.88;1.67;;;;;;;14.45;100.00;92370.59;2105038;28;20031;-89
2021/07/13 04:32:32;;;;;;;4.93;1.60;;;;;;;14.47;100.00;92375.50;2097879;28;20700;-90
2021/07/13 04:33:33;;;;;;;2.90;1.60;;;;;;;14.41;100.00;92375.41;2083960;28;20037;-89
2021/07/13 04:34:34;;;;;;;2.50;1.65;;;;;;;14.46;100.00;92376.72;2097849;28;20024;-88
2021/07/13 04:35:35;;;;;;;2.97;1.70;;;;;;;14.44;100.00;92382.53;2106379;28;20031;-89
2021/07/13 04:36:37;;;;;;;2.00;1.52;;;;;;;14.48;100.00;92385.81;2106207;28;20495;-90
2021/07/13 04:37:38;;;;;;;2.78;1.77;;;;;;;14.52;100.00;92388.34;2106618;28;20754;-88
2021/07/13 04:38:41;;;;;;;2.10;1.80;;;;;;;14.53;100.00;92389.84;2106142;28;20031;-88
2021/07/13 04:39:41;;;;;;;3.53;1.52;;;;;;;14.51;100.00;92390.28;2111511;28;20632;-87
2021/07/13 04:40:42;;;;;;;3.78;1.30;;;;;;;14.50;100.00;92388.06;2114974;28;20055;-88
2021/07/13 04:41:43;;;;;;;2.17;1.50;;;;;;;14.52;100.00;92388.34;2089711;28;20083;-89
2021/07/13 04:42:44;;;;;;;1.85;1.50;;;;;;;14.47;100.00;92384.31;2089886;28;20020;-88
2021/07/13 04:43:44;;;;;;;1.92;1.60;;;;;;;14.49;100.00;92381.97;2097555;28;20029;-87
2021/07/13 04:44:45;;;;;;;3.22;1.45;;;;;;;14.46;100.00;92380.16;2095021;28;20032;-89
2021/07/13 04:45:46;;;;;;;2.53;1.35;;;;;;;14.48;100.00;92377.75;2093609;28;20394;-87
2021/07/13 04:46:47;;;;;;;2.53;1.10;;;;;;;14.44;100.00;92376.41;2087187;28;20116;-89
2021/07/13 04:47:48;;;;;;;3.42;1.38;;;;;;;14.46;100.00;92377.47;2097801;28;20417;-91
2021/07/13 04:48:48;;;;;;;2.53;1.35;;;;;;;14.51;100.00;92382.22;2097630;28;20035;-88
2021/07/13 04:49:49;;;;;;;1.58;1.27;;;;;;;14.49;100.00;92384.66;2096832;28;20020;-91
2021/07/13 04:50:50;;;;;;;3.28;1.20;;;;;;;14.46;100.00;92382.84;2097674;28;20021;-89
2021/07/13 04:51:50;;;;;;;2.03;1.52;;;;;;;14.41;100.00;92378.09;2104838;28;20023;-89
2021/07/13 04:52:51;;;;;;;1.38;1.23;;;;;;;14.38;100.00;92392.44;2089315;28;20020;-89
2021/07/13 04:53:52;;;;;;;1.63;1.50;;;;;;;14.49;100.00;92386.59;2098150;28;20440;-90
2021/07/13 04:54:53;;;;;;;4.15;1.80;;;;;;;14.50;100.00;92388.06;2106062;28;20020;-90
2021/07/13 04:55:53;;;;;;;4.47;1.75;;;;;;;14.54;100.00;92383.28;2097468;28;20032;-88
2021/07/13 04:56:54;;;;;;;3.25;1.65;;;;;;;14.54;100.00;92386.69;2096095;28;20036;-88